Time;durP1;ratioP1;P1;durP2;ratioP2;P2;SDS_P1;SDS_P2;PMS_P1;PMS_P2;Temp;Humidity;BMP_temperature;BMP_pressure;BME280_temperature;BME280_humidity;BME280_pressure;Samples;Min_cycle;Max_cycle;Signal;HPM_P1;HPM_P2
2023/01/08 00:01:50;;;;;;;171.10;76.63;;;;;;;;;;5015270;28;20047;-80
2023/01/08 00:04:35;;;;;;;155.57;69.18;;;;;;;;;;5021322;28;20049;-85
2023/01/08 00:07:20;;;;;;;144.27;62.25;;;;;;;;;;5028604;28;20045;-79
2023/01/08 00:10:06;;;;;;;142.50;57.78;;;;;;;;;;5028814;28;20046;-80
2023/01/08 00:12:54;;;;;;;141.27;60.95;;;;;;;;;;5021224;28;20046;-85
2023/01/08 00:15:39;;;;;;;177.40;72.65;;;;;;;;;;5015549;28;20487;-85
2023/01/08 00:18:26;;;;;;;198.45;89.30;;;;;;;;;;5020823;28;20050;-84
2023/01/08 00:21:11;;;;;;;136.07;60.72;;;;;;;;;;5021002;28;20042;-81
2023/01/08 00:23:57;;;;;;;115.80;50.58;;;;;;;;;;5016277;28;20038;-81
2023/01/08 00:26:43;;;;;;;119.78;47.92;;;;;;;;;;5015628;28;20049;-80
2023/01/08 00:29:28;;;;;;;115.80;43.03;;;;;;;;;;5017252;28;20045;-81
2023/01/08 00:32:14;;;;;;;108.97;40.90;;;;;;;;;;5015184;28;20049;-85
2023/01/08 00:35:00;;;;;;;88.75;39.92;;;;;;;;;;5020296;28;20057;-85
2023/01/08 00:37:51;;;;;;;90.65;41.28;;;;;;;;;;5014963;28;20042;-81
2023/01/08 00:40:37;;;;;;;96.90;39.08;;;;;;;;;;5020644;28;20050;-80
2023/01/08 00:43:22;;;;;;;105.60;44.60;;;;;;;;;;5027426;28;20483;-81
2023/01/08 00:46:08;;;;;;;99.88;41.25;;;;;;;;;;5014838;28;20050;-85
2023/01/08 00:48:53;;;;;;;97.68;40.75;;;;;;;;;;5015291;28;20038;-86
2023/01/08 00:51:39;;;;;;;84.55;38.40;;;;;;;;;;5028038;28;20042;-79
2023/01/08 00:54:24;;;;;;;96.38;39.80;;;;;;;;;;5015083;28;20492;-80
2023/01/08 00:57:10;;;;;;;97.53;42.22;;;;;;;;;;5017726;28;20045;-80
2023/01/08 00:59:55;;;;;;;89.35;40.15;;;;;;;;;;5014503;28;20037;-85
2023/01/08 01:02:40;;;;;;;118.35;49.88;;;;;;;;;;5020594;28;20046;-79
2023/01/08 01:05:26;;;;;;;192.57;75.57;;;;;;;;;;5015256;28;20042;-80
2023/01/08 01:08:11;;;;;;;227.30;93.88;;;;;;;;;;5013640;28;20045;-80
2023/01/08 01:10:57;;;;;;;213.93;84.40;;;;;;;;;;5027451;28;20369;-80
2023/01/08 01:13:43;;;;;;;240.63;97.50;;;;;;;;;;5014667;28;20376;-80
2023/01/08 01:16:28;;;;;;;276.95;117.50;;;;;;;;;;5014517;28;20049;-80
2023/01/08 01:19:15;;;;;;;279.13;117.70;;;;;;;;;;5034138;28;20050;-85
2023/01/08 01:22:01;;;;;;;256.42;110.13;;;;;;;;;;5014693;28;20049;-80
2023/01/08 01:24:46;;;;;;;245.32;111.50;;;;;;;;;;5015837;28;20046;-80
2023/01/08 01:27:31;;;;;;;241.20;106.82;;;;;;;;;;5016874;28;20046;-79
2023/01/08 01:30:17;;;;;;;230.77;99.78;;;;;;;;;;5038431;28;20042;-78
2023/01/08 01:33:03;;;;;;;237.93;103.13;;;;;;;;;;5019452;28;20041;-83
2023/01/08 01:35:48;;;;;;;217.18;93.75;;;;;;;;;;5019144;28;20042;-80
2023/01/08 01:38:34;;;;;;;219.45;97.60;;;;;;;;;;5018453;28;20045;-85
2023/01/08 01:41:28;;;;;;;223.90;100.03;;;;;;;;;;5024490;28;20042;-85
2023/01/08 01:44:32;;;;;;;222.85;95.80;;;;;;;;;;5014113;28;20042;-80
2023/01/08 01:47:35;;;;;;;207.38;89.07;;;;;;;;;;5014045;28;20050;-84
2023/01/08 01:50:34;;;;;;;168.18;69.93;;;;;;;;;;5026898;28;20038;-80
2023/01/08 01:53:27;;;;;;;214.02;89.47;;;;;;;;;;5013864;28;20046;-87
2023/01/08 01:56:12;;;;;;;246.80;104.93;;;;;;;;;;5013809;28;20045;-87
2023/01/08 01:58:58;;;;;;;245.32;105.15;;;;;;;;;;5013886;28;20455;-87
2023/01/08 02:01:45;;;;;;;222.13;91.05;;;;;;;;;;5013601;28;20042;-87
2023/01/08 02:04:30;;;;;;;216.20;90.78;;;;;;;;;;5014183;28;20041;-77
2023/01/08 02:07:41;;;;;;;193.20;81.50;;;;;;;;;;5023202;28;20108;-87
2023/01/08 02:11:05;;;;;;;180.40;77.50;;;;;;;;;;4998561;28;20471;-81
2023/01/08 02:14:14;;;;;;;179.00;70.78;;;;;;;;;;5005830;28;20045;-81
2023/01/08 02:17:08;;;;;;;160.63;67.95;;;;;;;;;;5013688;28;20050;-80
2023/01/08 02:20:10;;;;;;;168.63;73.75;;;;;;;;;;5012969;28;20050;-88
2023/01/08 02:23:25;;;;;;;161.60;71.53;;;;;;;;;;5012895;28;20054;-80
2023/01/08 02:26:26;;;;;;;151.63;65.80;;;;;;;;;;5020317;28;20042;-80
2023/01/08 02:29:19;;;;;;;291.45;134.98;;;;;;;;;;5017453;28;20741;-80
2023/01/08 02:32:04;;;;;;;159.18;68.72;;;;;;;;;;5017954;28;20038;-87
2023/01/08 02:34:50;;;;;;;154.60;60.65;;;;;;;;;;5026718;28;20046;-87
2023/01/08 02:37:36;;;;;;;160.68;66.40;;;;;;;;;;5043648;28;20384;-84
2023/01/08 02:40:32;;;;;;;155.27;63.75;;;;;;;;;;5019313;28;20452;-84
2023/01/08 02:43:48;;;;;;;141.65;58.70;;;;;;;;;;5016584;28;20077;-85
2023/01/08 02:46:35;;;;;;;136.38;57.33;;;;;;;;;;5024525;28;20042;-84
2023/01/08 02:49:26;;;;;;;122.75;54.15;;;;;;;;;;5020929;28;20042;-84
2023/01/08 02:52:13;;;;;;;127.28;52.75;;;;;;;;;;5024965;28;20049;-85
2023/01/08 02:55:00;;;;;;;193.63;74.70;;;;;;;;;;5022118;28;20388;-84
2023/01/08 02:57:47;;;;;;;147.20;60.85;;;;;;;;;;5019047;28;20058;-84
2023/01/08 03:00:34;;;;;;;134.60;55.45;;;;;;;;;;5035951;28;20041;-84
2023/01/08 03:03:28;;;;;;;127.63;55.25;;;;;;;;;;5048250;28;20042;-83
2023/01/08 03:06:18;;;;;;;132.70;55.08;;;;;;;;;;5022921;28;20054;-83
2023/01/08 03:09:05;;;;;;;119.50;51.10;;;;;;;;;;5023803;28;20042;-85
2023/01/08 03:12:01;;;;;;;121.47;55.53;;;;;;;;;;5029033;28;20038;-84
2023/01/08 03:14:58;;;;;;;134.10;56.75;;;;;;;;;;5030745;28;20496;-84
2023/01/08 03:17:48;;;;;;;151.40;68.38;;;;;;;;;;5032426;28;20042;-81
2023/01/08 03:20:54;;;;;;;154.48;68.25;;;;;;;;;;5029514;28;20390;-83
2023/01/08 03:23:41;;;;;;;146.80;63.67;;;;;;;;;;5016868;28;20045;-83
2023/01/08 03:26:33;;;;;;;170.25;72.25;;;;;;;;;;5016673;28;20053;-82
2023/01/08 03:29:23;;;;;;;162.25;69.10;;;;;;;;;;5017822;28;20482;-83
2023/01/08 03:32:12;;;;;;;157.25;73.60;;;;;;;;;;5008274;28;20041;-81
2023/01/08 03:35:06;;;;;;;172.52;73.85;;;;;;;;;;5017646;28;20487;-83
2023/01/08 03:37:59;;;;;;;171.82;73.90;;;;;;;;;;5017697;28;20050;-83
2023/01/08 03:40:59;;;;;;;214.15;88.30;;;;;;;;;;5016345;28;20054;-83
2023/01/08 03:43:45;;;;;;;242.93;94.28;;;;;;;;;;5023908;28;20053;-83
2023/01/08 03:46:48;;;;;;;243.57;94.68;;;;;;;;;;5018529;28;20038;-81
2023/01/08 03:49:39;;;;;;;258.05;103.45;;;;;;;;;;5016643;28;20046;-82
2023/01/08 03:52:30;;;;;;;264.23;103.35;;;;;;;;;;5022303;28;20037;-82
2023/01/08 03:55:18;;;;;;;223.10;90.15;;;;;;;;;;5017336;28;20045;-82
2023/01/08 03:58:04;;;;;;;174.70;79.45;;;;;;;;;;5021872;28;20054;-85
2023/01/08 04:00:49;;;;;;;182.15;78.22;;;;;;;;;;5016154;28;20053;-82
2023/01/08 04:03:36;;;;;;;196.70;74.07;;;;;;;;;;5014835;28;20050;-82
2023/01/08 04:06:21;;;;;;;172.05;69.20;;;;;;;;;;5015886;28;20046;-83
2023/01/08 04:09:08;;;;;;;153.18;60.92;;;;;;;;;;5015984;28;20497;-85
2023/01/08 04:11:53;;;;;;;162.30;60.55;;;;;;;;;;5015727;28;20050;-83
2023/01/08 04:14:38;;;;;;;204.63;74.10;;;;;;;;;;5015675;28;20038;-83
2023/01/08 04:17:24;;;;;;;199.25;77.15;;;;;;;;;;5015629;28;20049;-83
2023/01/08 04:20:10;;;;;;;252.23;89.88;;;;;;;;;;5035360;28;20042;-83
2023/01/08 04:22:55;;;;;;;232.88;86.40;;;;;;;;;;5015343;28;20396;-83
2023/01/08 04:25:41;;;;;;;203.65;78.60;;;;;;;;;;5015736;28;20034;-84
2023/01/08 04:28:26;;;;;;;200.30;73.75;;;;;;;;;;5015720;28;20484;-83
2023/01/08 04:31:12;;;;;;;213.43;75.90;;;;;;;;;;5015543;28;20042;-83
2023/01/08 04:33:57;;;;;;;189.82;76.13;;;;;;;;;;5015649;28;20053;-83
2023/01/08 04:36:43;;;;;;;211.75;75.70;;;;;;;;;;5015262;28;20381;-83
2023/01/08 04:39:29;;;;;;;231.35;79.22;;;;;;;;;;5021011;28;20050;-83
2023/01/08 04:42:14;;;;;;;178.10;69.68;;;;;;;;;;5014938;28;20050;-83
2023/01/08 04:45:00;;;;;;;157.23;63.55;;;;;;;;;;5015256;28;20392;-83
2023/01/08 04:47:45;;;;;;;177.30;66.07;;;;;;;;;;5014944;28;20042;-83
2023/01/08 04:50:31;;;;;;;168.90;63.17;;;;;;;;;;5020492;28;20034;-83
2023/01/08 04:53:16;;;;;;;183.95;69.03;;;;;;;;;;5015042;28;20487;-83
2023/01/08 04:56:05;;;;;;;143.60;58.78;;;;;;;;;;5018683;28;20068;-82
2023/01/08 04:58:51;;;;;;;151.00;54.22;;;;;;;;;;5016128;28;20042;-84
2023/01/08 05:01:37;;;;;;;121.28;50.58;;;;;;;;;;5015043;28;20480;-84
2023/01/08 05:04:22;;;;;;;164.10;56.85;;;;;;;;;;5015058;28;20495;-84
2023/01/08 05:07:07;;;;;;;139.48;56.53;;;;;;;;;;5027922;28;20049;-84
2023/01/08 05:09:52;;;;;;;163.43;62.50;;;;;;;;;;5014710;28;20042;-84
2023/01/08 05:12:37;;;;;;;180.32;67.75;;;;;;;;;;5034431;28;20033;-84
2023/01/08 05:15:24;;;;;;;205.73;82.10;;;;;;;;;;5021253;28;20498;-84
2023/01/08 05:18:09;;;;;;;233.35;94.32;;;;;;;;;;5013632;28;20042;-84
2023/01/08 05:21:02;;;;;;;246.77;92.45;;;;;;;;;;5014699;28;20041;-84
2023/01/08 05:23:47;;;;;;;247.80;91.22;;;;;;;;;;5013700;28;20042;-84
2023/01/08 05:26:32;;;;;;;257.95;97.90;;;;;;;;;;5014505;28;20034;-85
2023/01/08 05:29:19;;;;;;;226.13;87.72;;;;;;;;;;5027451;28;20049;-84
2023/01/08 05:32:12;;;;;;;187.55;69.57;;;;;;;;;;5013219;28;20042;-84
2023/01/08 05:34:58;;;;;;;174.63;70.18;;;;;;;;;;5014286;28;20487;-84
2023/01/08 05:37:43;;;;;;;235.73;70.10;;;;;;;;;;5019461;28;20050;-84
2023/01/08 05:40:28;;;;;;;233.68;80.32;;;;;;;;;;5014118;28;20038;-84
2023/01/08 05:43:13;;;;;;;230.77;85.25;;;;;;;;;;5019593;28;20050;-84
2023/01/08 05:46:01;;;;;;;221.60;83.10;;;;;;;;;;5014054;28;20053;-84
2023/01/08 05:48:46;;;;;;;199.98;85.00;;;;;;;;;;5019188;28;20045;-84
2023/01/08 05:51:32;;;;;;;239.55;85.80;;;;;;;;;;5014103;28;20388;-84
2023/01/08 05:54:17;;;;;;;223.18;82.07;;;;;;;;;;5014236;28;20046;-84
2023/01/08 05:57:03;;;;;;;272.23;97.53;;;;;;;;;;5012498;28;20049;-84
2023/01/08 05:59:48;;;;;;;219.88;90.43;;;;;;;;;;5014089;28;20046;-83
2023/01/08 06:02:34;;;;;;;291.17;111.10;;;;;;;;;;5013877;28;20038;-84
2023/01/08 06:05:20;;;;;;;257.55;104.32;;;;;;;;;;5013901;28;20045;-84
2023/01/08 06:08:05;;;;;;;273.33;95.22;;;;;;;;;;5020550;28;20049;-83
2023/01/08 06:10:51;;;;;;;254.77;96.72;;;;;;;;;;5013682;28;20046;-83
2023/01/08 06:13:36;;;;;;;259.67;106.35;;;;;;;;;;5013357;28;20041;-83
2023/01/08 06:16:22;;;;;;;213.15;82.57;;;;;;;;;;5013572;28;20041;-84
2023/01/08 06:19:09;;;;;;;235.32;88.63;;;;;;;;;;5013806;28;20045;-85
2023/01/08 06:21:55;;;;;;;207.68;72.20;;;;;;;;;;5012877;28;20480;-85
2023/01/08 06:24:40;;;;;;;164.73;59.47;;;;;;;;;;5005326;28;20042;-85
2023/01/08 06:27:25;;;;;;;158.75;65.32;;;;;;;;;;5022938;28;20041;-83
2023/01/08 06:30:10;;;;;;;188.75;72.20;;;;;;;;;;5018536;28;20030;-84
2023/01/08 06:32:57;;;;;;;189.68;72.53;;;;;;;;;;5037104;28;20038;-84
2023/01/08 06:35:42;;;;;;;177.10;68.43;;;;;;;;;;5017495;28;20034;-85
2023/01/08 06:38:35;;;;;;;175.85;65.18;;;;;;;;;;5017418;28;20491;-85
2023/01/08 06:41:21;;;;;;;195.40;72.72;;;;;;;;;;5017355;28;20041;-85
2023/01/08 06:44:06;;;;;;;225.25;85.78;;;;;;;;;;5030298;28;20400;-85
2023/01/08 06:46:52;;;;;;;232.50;85.78;;;;;;;;;;5017580;28;20042;-85
2023/01/08 06:49:37;;;;;;;234.02;85.10;;;;;;;;;;5017626;28;20034;-85
2023/01/08 06:52:23;;;;;;;218.80;80.80;;;;;;;;;;5030263;28;20479;-85
2023/01/08 06:55:08;;;;;;;191.70;73.75;;;;;;;;;;5019027;28;20038;-84
2023/01/08 06:57:55;;;;;;;225.23;82.32;;;;;;;;;;5015685;28;20050;-85
2023/01/08 07:00:42;;;;;;;206.07;79.72;;;;;;;;;;5031953;28;20042;-84
2023/01/08 07:03:27;;;;;;;205.07;93.30;;;;;;;;;;5022944;28;20029;-84
2023/01/08 07:06:18;;;;;;;202.35;81.68;;;;;;;;;;5038241;28;20046;-85
2023/01/08 07:09:04;;;;;;;189.93;79.07;;;;;;;;;;5024379;28;20089;-85
2023/01/08 07:11:50;;;;;;;197.95;82.47;;;;;;;;;;5029672;28;20038;-85
2023/01/08 07:14:35;;;;;;;219.70;84.88;;;;;;;;;;5043224;28;20046;-85
2023/01/08 07:17:21;;;;;;;210.63;84.25;;;;;;;;;;5017087;28;20050;-85
2023/01/08 07:20:08;;;;;;;233.00;90.15;;;;;;;;;;5017631;28;20038;-85
2023/01/08 07:22:53;;;;;;;223.18;93.30;;;;;;;;;;5037410;28;20049;-85
2023/01/08 07:25:39;;;;;;;246.13;105.13;;;;;;;;;;5030218;28;20034;-83
2023/01/08 07:28:24;;;;;;;218.40;84.97;;;;;;;;;;5029860;28;20364;-85
2023/01/08 07:31:09;;;;;;;205.75;93.78;;;;;;;;;;5022226;28;20046;-85
2023/01/08 07:33:54;;;;;;;212.63;91.55;;;;;;;;;;5029071;28;20042;-81
2023/01/08 07:36:40;;;;;;;175.88;84.85;;;;;;;;;;5016509;28;20050;-85
2023/01/08 07:39:25;;;;;;;181.60;79.15;;;;;;;;;;5021818;28;20050;-85
2023/01/08 07:42:11;;;;;;;152.77;70.57;;;;;;;;;;5035701;28;20042;-85
2023/01/08 07:44:57;;;;;;;151.60;66.80;;;;;;;;;;5018120;28;20475;-85
2023/01/08 07:47:42;;;;;;;160.02;66.43;;;;;;;;;;5021724;28;20053;-85
2023/01/08 07:50:27;;;;;;;146.50;67.53;;;;;;;;;;5016807;28;20041;-86
2023/01/08 07:53:15;;;;;;;152.95;64.53;;;;;;;;;;5016038;28;20050;-86
2023/01/08 07:56:06;;;;;;;194.57;83.82;;;;;;;;;;5019587;28;20038;-86
2023/01/08 07:58:52;;;;;;;184.45;73.15;;;;;;;;;;5016163;28;20050;-85
2023/01/08 08:01:37;;;;;;;192.95;85.07;;;;;;;;;;5018269;28;20050;-86
2023/01/08 08:04:23;;;;;;;165.50;73.85;;;;;;;;;;5015719;28;20054;-86
2023/01/08 08:07:09;;;;;;;244.35;117.47;;;;;;;;;;5014672;28;20057;-85
2023/01/08 08:09:54;;;;;;;213.73;104.13;;;;;;;;;;5021878;28;20042;-85
2023/01/08 08:12:40;;;;;;;203.10;89.68;;;;;;;;;;5017571;28;20054;-86
2023/01/08 08:15:25;;;;;;;231.63;106.80;;;;;;;;;;5029765;28;20041;-85
2023/01/08 08:18:10;;;;;;;213.20;101.00;;;;;;;;;;5017551;28;20041;-85
2023/01/08 08:20:56;;;;;;;209.32;102.50;;;;;;;;;;5015476;28;20038;-84
2023/01/08 08:23:43;;;;;;;211.18;99.30;;;;;;;;;;5015546;28;20045;-85
2023/01/08 08:26:29;;;;;;;197.82;94.50;;;;;;;;;;5028517;28;20038;-84
2023/01/08 08:29:14;;;;;;;200.88;97.68;;;;;;;;;;5015835;28;20399;-85
2023/01/08 08:32:00;;;;;;;153.70;74.47;;;;;;;;;;5015589;28;20472;-85
2023/01/08 08:34:45;;;;;;;164.40;76.50;;;;;;;;;;5016364;28;20037;-87
2023/01/08 08:37:31;;;;;;;158.57;84.53;;;;;;;;;;5014960;28;20041;-86
2023/01/08 08:40:16;;;;;;;152.75;74.00;;;;;;;;;;5018847;28;20411;-85
2023/01/08 08:43:03;;;;;;;166.93;80.88;;;;;;;;;;5034181;28;20411;-86
2023/01/08 08:45:48;;;;;;;216.10;105.07;;;;;;;;;;5015055;28;20045;-87
2023/01/08 08:48:33;;;;;;;205.70;100.40;;;;;;;;;;5019924;28;20054;-87
2023/01/08 08:51:19;;;;;;;194.85;91.50;;;;;;;;;;5027657;28;20045;-85
2023/01/08 08:54:03;;;;;;;194.40;100.15;;;;;;;;;;5020592;28;20030;-85
2023/01/08 08:56:49;;;;;;;191.85;97.93;;;;;;;;;;5014542;28;20050;-86
2023/01/08 08:59:35;;;;;;;203.45;102.20;;;;;;;;;;5015140;28;20050;-86
2023/01/08 09:02:20;;;;;;;229.27;110.40;;;;;;;;;;5008336;28;20410;-86
2023/01/08 09:05:06;;;;;;;209.48;105.55;;;;;;;;;;5015212;28;20491;-87
2023/01/08 09:07:53;;;;;;;200.60;103.97;;;;;;;;;;5013840;28;20042;-85
2023/01/08 09:10:41;;;;;;;212.88;103.63;;;;;;;;;;5019871;28;20038;-86
2023/01/08 09:13:26;;;;;;;213.60;102.80;;;;;;;;;;5013465;28;20042;-87
2023/01/08 09:16:11;;;;;;;220.27;104.75;;;;;;;;;;5013159;28;20045;-87
2023/01/08 09:18:56;;;;;;;203.77;95.72;;;;;;;;;;5013995;28;20050;-87
2023/01/08 09:21:41;;;;;;;181.20;90.20;;;;;;;;;;5020342;28;20038;-88
2023/01/08 09:24:27;;;;;;;186.07;95.32;;;;;;;;;;5023032;28;20335;-86
2023/01/08 09:27:18;;;;;;;185.07;98.03;;;;;;;;;;5013117;28;20471;-84
2023/01/08 09:30:03;;;;;;;188.18;93.30;;;;;;;;;;5028396;28;20075;-83
2023/01/08 09:32:48;;;;;;;180.68;85.00;;;;;;;;;;5014814;28;20046;-79
2023/01/08 09:35:34;;;;;;;179.68;87.80;;;;;;;;;;5020355;28;20053;-81
2023/01/08 09:38:20;;;;;;;154.88;78.90;;;;;;;;;;5017836;28;20041;-83
2023/01/08 09:41:15;;;;;;;150.68;75.00;;;;;;;;;;5031662;28;20050;-83
2023/01/08 09:44:03;;;;;;;154.82;79.65;;;;;;;;;;5032727;28;20026;-79
2023/01/08 09:46:49;;;;;;;149.30;68.95;;;;;;;;;;5024435;28;20042;-76
2023/01/08 09:49:44;;;;;;;147.23;74.50;;;;;;;;;;5014011;28;20046;-79
2023/01/08 09:52:30;;;;;;;183.88;94.00;;;;;;;;;;5020314;28;20046;-79
2023/01/08 09:55:15;;;;;;;209.93;104.35;;;;;;;;;;5013585;28;20041;-79
2023/01/08 09:58:01;;;;;;;224.63;115.07;;;;;;;;;;5013518;28;20058;-80
2023/01/08 10:00:46;;;;;;;235.40;115.40;;;;;;;;;;5012311;28;20034;-80
2023/01/08 10:04:13;;;;;;;224.20;114.85;;;;;;;;;;5013193;28;20045;-81
2023/01/08 10:07:14;;;;;;;183.13;94.53;;;;;;;;;;5015833;28;20046;-80
2023/01/08 10:09:59;;;;;;;112.32;54.22;;;;;;;;;;5014226;28;20050;-81
2023/01/08 10:12:45;;;;;;;106.63;55.75;;;;;;;;;;5020148;28;20041;-80
2023/01/08 10:15:30;;;;;;;98.03;48.03;;;;;;;;;;5015096;28;20392;-80
2023/01/08 10:18:18;;;;;;;102.28;53.08;;;;;;;;;;5013437;28;20484;-79
2023/01/08 10:21:04;;;;;;;115.53;57.70;;;;;;;;;;5013181;28;20476;-80
2023/01/08 10:23:51;;;;;;;103.72;52.28;;;;;;;;;;5019986;28;20038;-80
2023/01/08 10:26:38;;;;;;;78.22;42.75;;;;;;;;;;5013921;28;20054;-80
2023/01/08 10:29:24;;;;;;;91.50;44.20;;;;;;;;;;5013396;28;20049;-80
2023/01/08 10:32:14;;;;;;;87.03;44.00;;;;;;;;;;5019735;28;20042;-79
2023/01/08 10:35:04;;;;;;;70.43;37.53;;;;;;;;;;5011946;28;20403;-80
2023/01/08 10:37:50;;;;;;;80.63;40.35;;;;;;;;;;5013214;28;20049;-80
2023/01/08 10:40:47;;;;;;;76.10;40.38;;;;;;;;;;5013233;28;20045;-80
2023/01/08 10:43:52;;;;;;;75.82;40.42;;;;;;;;;;5012840;28;20041;-80
2023/01/08 10:46:43;;;;;;;78.68;40.97;;;;;;;;;;5024688;28;20050;-84
2023/01/08 10:49:35;;;;;;;73.93;37.08;;;;;;;;;;5019287;28;20038;-82
2023/01/08 10:52:31;;;;;;;71.22;37.35;;;;;;;;;;5027009;28;20050;-83
2023/01/08 10:55:38;;;;;;;71.40;38.03;;;;;;;;;;5028350;28;20034;-84
2023/01/08 10:58:26;;;;;;;83.40;43.10;;;;;;;;;;5023371;28;20049;-83
2023/01/08 11:01:29;;;;;;;93.82;46.17;;;;;;;;;;5013223;28;20046;-82
2023/01/08 11:04:22;;;;;;;64.35;32.65;;;;;;;;;;5035815;28;20042;-84
2023/01/08 11:07:19;;;;;;;68.88;35.80;;;;;;;;;;5019607;28;20070;-83
2023/01/08 11:10:28;;;;;;;70.22;38.15;;;;;;;;;;5021172;28;20050;-83
2023/01/08 11:13:18;;;;;;;55.00;30.13;;;;;;;;;;5024362;28;20411;-84
2023/01/08 11:16:05;;;;;;;59.08;29.52;;;;;;;;;;5018399;28;20057;-84
2023/01/08 11:18:51;;;;;;;63.25;33.85;;;;;;;;;;5017223;28;20046;-84
2023/01/08 11:21:36;;;;;;;54.47;31.98;;;;;;;;;;5022592;28;20037;-83
2023/01/08 11:24:32;;;;;;;74.45;37.20;;;;;;;;;;5016170;28;20042;-84
2023/01/08 11:27:29;;;;;;;65.03;34.95;;;;;;;;;;5015400;28;20054;-83
2023/01/08 11:30:21;;;;;;;407.00;209.27;;;;;;;;;;5032327;28;20053;-85
2023/01/08 11:33:17;;;;;;;137.60;66.72;;;;;;;;;;5029083;28;20042;-85
2023/01/08 11:36:43;;;;;;;358.48;189.00;;;;;;;;;;5025164;28;20054;-85
2023/01/08 11:39:29;;;;;;;87.88;47.75;;;;;;;;;;5013172;28;20479;-86
2023/01/08 11:42:36;;;;;;;78.70;44.03;;;;;;;;;;5038553;28;20045;-86
2023/01/08 11:45:44;;;;;;;68.97;37.33;;;;;;;;;;5021902;28;20042;-80
2023/01/08 11:49:00;;;;;;;91.85;49.63;;;;;;;;;;5018069;28;20041;-81
2023/01/08 11:52:22;;;;;;;161.85;78.35;;;;;;;;;;5019298;28;20054;-86
2023/01/08 11:55:42;;;;;;;114.57;53.90;;;;;;;;;;5004654;28;20046;-85
2023/01/08 11:58:50;;;;;;;108.05;60.03;;;;;;;;;;5015491;28;20049;-88
2023/01/08 12:01:44;;;;;;;129.23;70.72;;;;;;;;;;5016172;28;20061;-83
2023/01/08 12:05:04;;;;;;;87.90;46.80;;;;;;;;;;5018349;28;20038;-79
2023/01/08 12:08:22;;;;;;;80.90;45.30;;;;;;;;;;5005273;28;20046;-80
2023/01/08 12:11:19;;;;;;;81.13;47.22;;;;;;;;;;5006478;28;20050;-80
2023/01/08 12:14:16;;;;;;;73.20;37.20;;;;;;;;;;5043720;28;20046;-80
2023/01/08 12:17:20;;;;;;;61.03;32.65;;;;;;;;;;5028263;28;20045;-79
2023/01/08 12:20:50;;;;;;;126.07;75.85;;;;;;;;;;5017327;28;20479;-79
2023/01/08 12:23:53;;;;;;;147.25;66.85;;;;;;;;;;4941194;29;20047;-79
2023/01/08 12:26:55;;;;;;;134.30;61.78;;;;;;;;;;4957659;29;20047;-80
2023/01/08 12:29:57;;;;;;;89.57;40.25;;;;;;;;;;5016347;28;20046;-79
2023/01/08 12:32:54;;;;;;;159.00;72.00;;;;;;;;;;5017770;28;20045;-80
2023/01/08 12:35:46;;;;;;;87.15;42.83;;;;;;;;;;5019543;28;20045;-80
2023/01/08 12:38:36;;;;;;;74.03;39.10;;;;;;;;;;5021722;28;20050;-79
2023/01/08 12:41:23;;;;;;;68.85;36.97;;;;;;;;;;5021104;28;20041;-80
2023/01/08 12:44:10;;;;;;;58.55;28.25;;;;;;;;;;5022120;28;20041;-80
2023/01/08 12:46:57;;;;;;;99.78;45.65;;;;;;;;;;5018281;28;20033;-80
2023/01/08 12:49:55;;;;;;;59.50;30.45;;;;;;;;;;5016667;28;20042;-80
2023/01/08 12:52:52;;;;;;;51.08;27.00;;;;;;;;;;5022170;28;20038;-80
2023/01/08 12:56:02;;;;;;;65.72;31.55;;;;;;;;;;5023408;28;20053;-80
2023/01/08 12:58:53;;;;;;;81.75;41.60;;;;;;;;;;5003184;28;20046;-79
2023/01/08 13:02:01;;;;;;;61.22;33.35;;;;;;;;;;5000066;28;20047;-80
2023/01/08 13:04:47;;;;;;;52.50;28.50;;;;;;;;;;5002200;28;20042;-80
2023/01/08 13:07:42;;;;;;;60.58;30.92;;;;;;;;;;5007289;28;20038;-79
2023/01/08 13:10:30;;;;;;;56.65;31.13;;;;;;;;;;5009450;28;20046;-79
2023/01/08 13:13:44;;;;;;;61.33;33.25;;;;;;;;;;5009483;28;20038;-80
2023/01/08 13:16:34;;;;;;;59.28;30.98;;;;;;;;;;5000830;28;20396;-79
2023/01/08 13:19:33;;;;;;;66.43;32.40;;;;;;;;;;4998184;28;20042;-81
2023/01/08 13:22:29;;;;;;;78.10;35.40;;;;;;;;;;5001227;28;20054;-79
2023/01/08 13:25:15;;;;;;;98.85;42.35;;;;;;;;;;4999607;28;20050;-80
2023/01/08 13:28:17;;;;;;;90.15;40.88;;;;;;;;;;4995036;28;20039;-79
2023/01/08 13:31:26;;;;;;;91.70;41.65;;;;;;;;;;5007631;28;20041;-79
2023/01/08 13:34:21;;;;;;;79.85;37.95;;;;;;;;;;4999692;28;20034;-79
2023/01/08 13:37:07;;;;;;;64.40;32.75;;;;;;;;;;5001599;28;20046;-79
2023/01/08 13:39:51;;;;;;;65.60;33.88;;;;;;;;;;5003547;28;20042;-79
2023/01/08 13:42:40;;;;;;;74.65;35.47;;;;;;;;;;4997984;28;20388;-79
2023/01/08 13:45:28;;;;;;;75.68;37.75;;;;;;;;;;5001174;28;20034;-79
2023/01/08 13:48:25;;;;;;;67.45;34.10;;;;;;;;;;4994183;28;20038;-79
2023/01/08 13:51:32;;;;;;;53.92;29.35;;;;;;;;;;4994205;28;20038;-79
2023/01/08 13:54:22;;;;;;;56.88;30.70;;;;;;;;;;5007771;28;20042;-79
2023/01/08 13:57:14;;;;;;;76.10;36.50;;;;;;;;;;5015711;28;20049;-79
2023/01/08 14:00:00;;;;;;;67.90;35.85;;;;;;;;;;5025263;28;20042;-80
2023/01/08 14:02:49;;;;;;;68.88;37.83;;;;;;;;;;5014130;28;20388;-80
2023/01/08 14:05:34;;;;;;;64.47;33.65;;;;;;;;;;5031495;28;20396;-80
2023/01/08 14:08:24;;;;;;;56.92;31.58;;;;;;;;;;5032916;28;20046;-79
2023/01/08 14:11:10;;;;;;;60.75;29.15;;;;;;;;;;5026316;28;20046;-80
2023/01/08 14:13:56;;;;;;;53.67;28.77;;;;;;;;;;5023574;28;20038;-80
2023/01/08 14:16:41;;;;;;;56.20;30.23;;;;;;;;;;5014468;28;20037;-79
2023/01/08 14:19:27;;;;;;;57.92;30.73;;;;;;;;;;5020707;28;20049;-80
2023/01/08 14:22:25;;;;;;;64.05;34.25;;;;;;;;;;5023094;28;20042;-79
2023/01/08 14:25:15;;;;;;;126.65;61.15;;;;;;;;;;5019607;28;20053;-79
2023/01/08 14:28:03;;;;;;;96.47;51.08;;;;;;;;;;5030475;28;20054;-80
2023/01/08 14:30:53;;;;;;;71.03;38.55;;;;;;;;;;5033030;28;20046;-80
2023/01/08 14:33:45;;;;;;;68.68;38.88;;;;;;;;;;5026508;28;20041;-79
2023/01/08 14:36:31;;;;;;;74.35;41.13;;;;;;;;;;5032485;28;20451;-79
2023/01/08 14:39:24;;;;;;;70.13;39.15;;;;;;;;;;5017405;28;20383;-78
2023/01/08 14:45:44;;;;;;;125.20;55.13;;;;;;;;;;5013384;28;20042;-80
2023/01/08 14:48:41;;;;;;;77.78;42.50;;;;;;;;;;5017510;28;20050;-80
2023/01/08 14:51:30;;;;;;;122.07;54.13;;;;;;;;;;5019549;28;20475;-79
2023/01/08 14:54:25;;;;;;;121.10;53.58;;;;;;;;;;5017567;28;20391;-80
2023/01/08 14:57:11;;;;;;;99.18;43.28;;;;;;;;;;5018371;28;20054;-81
2023/01/08 14:59:59;;;;;;;90.65;42.45;;;;;;;;;;5020560;28;20046;-81
2023/01/08 15:02:45;;;;;;;85.47;42.17;;;;;;;;;;5018530;28;20053;-81
2023/01/08 15:05:32;;;;;;;117.40;57.53;;;;;;;;;;5019839;28;20041;-81
2023/01/08 15:08:42;;;;;;;145.63;73.57;;;;;;;;;;5017013;28;20046;-80
2023/01/08 15:11:53;;;;;;;131.68;64.78;;;;;;;;;;5018468;28;20033;-81
2023/01/08 15:14:38;;;;;;;169.25;83.28;;;;;;;;;;5018049;28;20072;-80
2023/01/08 15:17:27;;;;;;;175.40;87.15;;;;;;;;;;5020311;28;20045;-80
2023/01/08 15:20:19;;;;;;;162.07;81.93;;;;;;;;;;5018762;28;20045;-80
2023/01/08 15:23:04;;;;;;;163.30;77.38;;;;;;;;;;5020872;28;20041;-79
2023/01/08 15:25:50;;;;;;;288.10;134.45;;;;;;;;;;5016391;28;20038;-80
2023/01/08 15:28:55;;;;;;;373.58;174.32;;;;;;;;;;5016693;28;20042;-80
2023/01/08 15:31:40;;;;;;;261.02;126.47;;;;;;;;;;5016081;28;20049;-80
2023/01/08 15:34:26;;;;;;;255.52;122.53;;;;;;;;;;5016154;28;20046;-80
2023/01/08 15:37:13;;;;;;;249.40;119.55;;;;;;;;;;5016000;28;20053;-80
2023/01/08 15:39:59;;;;;;;256.73;122.47;;;;;;;;;;5015965;28;20038;-79
2023/01/08 15:45:49;;;;;;;242.73;120.32;;;;;;;;;;5016422;28;20507;-84
2023/01/08 15:48:41;;;;;;;315.83;151.43;;;;;;;;;;5018013;28;20043;-83
2023/01/08 15:51:28;;;;;;;374.02;185.82;;;;;;;;;;5017945;28;20053;-84
2023/01/08 15:54:14;;;;;;;376.83;180.68;;;;;;;;;;5020480;28;20058;-85
2023/01/08 15:57:00;;;;;;;202.05;103.15;;;;;;;;;;5016189;28;20089;-85
2023/01/08 15:59:45;;;;;;;241.13;120.95;;;;;;;;;;5029099;28;20045;-84
2023/01/08 16:02:45;;;;;;;293.08;152.68;;;;;;;;;;5018187;28;20046;-84
2023/01/08 16:05:31;;;;;;;229.98;120.18;;;;;;;;;;5016941;28;20038;-82
2023/01/08 16:08:16;;;;;;;172.00;88.95;;;;;;;;;;5017030;28;20042;-83
2023/01/08 16:11:02;;;;;;;157.27;81.60;;;;;;;;;;5015324;28;20046;-83
2023/01/08 16:13:47;;;;;;;175.30;90.43;;;;;;;;;;5020912;28;20042;-83
2023/01/08 16:16:33;;;;;;;218.60;115.85;;;;;;;;;;5015330;28;20050;-83
2023/01/08 16:19:19;;;;;;;240.93;120.75;;;;;;;;;;5015570;28;20046;-84
2023/01/08 16:22:04;;;;;;;192.73;96.35;;;;;;;;;;5014549;28;20046;-85
2023/01/08 16:24:49;;;;;;;279.27;163.50;;;;;;;;;;5033805;28;20038;-82